Archival Weather

Half Moon Bay

Half Moon Bay, California (KHAF)

Report from: Tuesday, September 19, 2023 2:55 AM PDT
Current time: Tuesday, July 16, 2024 7:59 AM PDT

Current weather – Weather history – Daily summaries
Weather forecast

Present weatherMist
Temperature15.0°C (59.0°F)
Dew point15.0°C (59.0°F)
Winds 4 kts (2.1 m/s, 4.6 mph) North-Northwest (330°)
Visibility6 mi. (9.7 km)
Clouds Ceiling: Overcast 400 ft. (122 m)
Altimeter30.00 in.Hg (1016 mB)
Relative humidity100 %
Density altitude145 ft. (44 m)
Remarks Fully automated report
Automated weather observing station with precipitation discriminator
Flight conditions Low Instrument Meteorological Conditions
Raw dataKHAF 190955Z AUTO 33004KT 6SM BR OVC004 15/15 A3000 RMK AO2
An error has occurred. This application may no longer respond until reloaded. Reload 🗙